createdAt,value
2023-01-07T00:01:49.262Z,34.25
2023-01-07T00:04:30.634Z,37.47
2023-01-07T00:07:17.903Z,35.80
2023-01-07T00:09:58.743Z,33.25
2023-01-07T00:12:45.676Z,36.53
2023-01-07T00:15:26.921Z,36.30
2023-01-07T00:18:14.032Z,38.88
2023-01-07T00:20:55.049Z,44.80
2023-01-07T00:23:43.786Z,33.63
2023-01-07T00:26:26.923Z,45.95
2023-01-07T00:29:14.481Z,54.58
2023-01-07T00:31:56.234Z,47.50
2023-01-07T00:34:45.811Z,37.80
2023-01-07T00:37:45.384Z,34.58
2023-01-07T00:40:33.034Z,32.22
2023-01-07T00:43:26.695Z,32.85
2023-01-07T00:46:13.883Z,24.42
2023-01-07T00:48:54.665Z,32.92
2023-01-07T00:51:41.594Z,30.83
2023-01-07T00:54:22.911Z,28.27
2023-01-07T00:57:09.647Z,31.25
2023-01-07T00:59:50.695Z,23.42
2023-01-07T01:02:37.726Z,23.85
2023-01-07T01:05:19.946Z,22.63
2023-01-07T01:08:06.460Z,27.98
2023-01-07T01:10:47.729Z,22.88
2023-01-07T01:13:34.652Z,37.20
2023-01-07T01:16:25.202Z,29.35
2023-01-07T01:19:13.070Z,25.45
2023-01-07T01:21:54.065Z,22.95
2023-01-07T01:24:40.738Z,20.60
2023-01-07T01:27:21.795Z,22.05
2023-01-07T01:30:09.555Z,22.98
2023-01-07T01:32:51.645Z,18.52
2023-01-07T01:35:38.680Z,19.60
2023-01-07T01:38:19.760Z,21.15
2023-01-07T01:41:06.592Z,23.05
2023-01-07T01:44:01.771Z,25.67
2023-01-07T01:46:53.052Z,19.85
2023-01-07T01:49:47.606Z,16.57
2023-01-07T01:53:09.146Z,21.73
2023-01-07T01:56:02.087Z,27.60
2023-01-07T01:59:12.670Z,23.02
2023-01-07T02:01:53.871Z,29.83
2023-01-07T02:04:41.587Z,23.25
2023-01-07T02:07:24.933Z,27.40
2023-01-07T02:10:28.639Z,24.92
2023-01-07T02:13:34.791Z,26.13
2023-01-07T02:16:47.690Z,16.00
2023-01-07T02:19:52.766Z,18.38
2023-01-07T02:22:58.799Z,20.70
2023-01-07T02:25:57.918Z,29.48
2023-01-07T02:29:10.754Z,34.35
2023-01-07T02:32:00.825Z,28.20
2023-01-07T02:35:24.618Z,23.27
2023-01-07T02:38:52.954Z,25.08
2023-01-07T02:42:04.689Z,20.80
2023-01-07T02:44:50.293Z,20.73
2023-01-07T02:47:53.764Z,22.13
2023-01-07T02:50:34.975Z,23.25
2023-01-07T02:53:24.879Z,35.80
2023-01-07T02:56:37.026Z,31.80
2023-01-07T02:59:43.744Z,39.42
2023-01-07T03:03:03.779Z,26.80
2023-01-07T03:06:28.509Z,36.10
2023-01-07T03:09:09.596Z,45.20
2023-01-07T03:12:15.764Z,38.08
2023-01-07T03:15:15.734Z,30.33
2023-01-07T03:18:11.889Z,30.33
2023-01-07T03:20:56.813Z,18.70
2023-01-07T03:23:48.744Z,25.02
2023-01-07T03:26:38.821Z,19.17
2023-01-07T03:29:27.039Z,19.42
2023-01-07T03:32:29.839Z,19.97
2023-01-07T03:35:17.677Z,17.65
2023-01-07T03:38:00.106Z,40.38
2023-01-07T03:40:48.734Z,26.23
2023-01-07T03:43:36.087Z,29.85
2023-01-07T03:46:22.663Z,23.80
2023-01-07T03:49:03.851Z,32.63
2023-01-07T03:51:50.600Z,37.00
2023-01-07T03:54:31.841Z,36.40
2023-01-07T03:57:18.978Z,36.75
2023-01-07T03:59:59.654Z,34.45
2023-01-07T04:02:54.759Z,37.50
2023-01-07T04:05:40.775Z,30.95
2023-01-07T04:08:27.763Z,29.02
2023-01-07T04:11:09.105Z,27.10
2023-01-07T04:13:55.826Z,37.08
2023-01-07T04:16:38.283Z,54.13
2023-01-07T04:19:25.795Z,33.95
2023-01-07T04:22:06.742Z,39.45
2023-01-07T04:24:54.941Z,35.70
2023-01-07T04:27:35.823Z,35.85
2023-01-07T04:30:22.961Z,37.38
2023-01-07T04:33:03.794Z,41.03
2023-01-07T04:35:53.650Z,32.00
2023-01-07T04:38:34.756Z,28.25
2023-01-07T04:41:21.872Z,24.38
2023-01-07T04:44:15.826Z,42.95
2023-01-07T04:47:03.797Z,29.67
2023-01-07T04:49:44.757Z,15.02
2023-01-07T04:52:31.683Z,17.55
2023-01-07T04:55:13.913Z,23.05
2023-01-07T04:58:01.920Z,19.85
2023-01-07T05:00:43.078Z,24.08
2023-01-07T05:03:30.751Z,19.30
2023-01-07T05:06:14.066Z,18.50
2023-01-07T05:09:01.805Z,19.00
2023-01-07T05:11:42.801Z,40.75
2023-01-07T05:14:30.808Z,30.33
2023-01-07T05:17:12.139Z,26.58
2023-01-07T05:19:59.673Z,26.38
2023-01-07T05:22:41.807Z,21.92
2023-01-07T05:25:29.154Z,17.90
2023-01-07T05:28:09.967Z,18.23
2023-01-07T05:30:57.157Z,8.50
2023-01-07T05:33:38.980Z,10.68
2023-01-07T05:36:26.099Z,8.93
2023-01-07T05:39:06.816Z,15.88
2023-01-07T05:41:54.728Z,13.65
2023-01-07T05:44:49.707Z,10.38
2023-01-07T05:47:37.088Z,14.60
2023-01-07T05:50:18.149Z,17.75
2023-01-07T05:53:05.100Z,18.23
2023-01-07T05:55:46.163Z,27.48
2023-01-07T05:58:33.907Z,25.35
2023-01-07T06:01:14.886Z,29.45
2023-01-07T06:04:02.210Z,36.30
2023-01-07T06:06:42.715Z,30.52
2023-01-07T06:09:29.887Z,25.27
2023-01-07T06:12:11.605Z,31.17
2023-01-07T06:14:58.936Z,84.55
2023-01-07T06:17:39.885Z,43.67
2023-01-07T06:20:26.712Z,42.13
2023-01-07T06:23:08.184Z,81.57
2023-01-07T06:25:54.826Z,47.03
2023-01-07T06:28:35.774Z,48.33
2023-01-07T06:31:22.875Z,45.40
2023-01-07T06:34:03.875Z,40.30
2023-01-07T06:36:50.816Z,35.33
2023-01-07T06:39:31.996Z,42.28
2023-01-07T06:42:25.860Z,31.10
2023-01-07T06:45:27.816Z,30.52
2023-01-07T06:48:14.694Z,27.92
2023-01-07T06:50:55.930Z,31.63
2023-01-07T06:53:42.691Z,28.30
2023-01-07T06:56:23.890Z,29.80
2023-01-07T06:59:10.736Z,24.92
2023-01-07T07:01:52.314Z,27.90
2023-01-07T07:04:39.109Z,25.60
2023-01-07T07:07:19.959Z,29.05
2023-01-07T07:10:11.262Z,26.67
2023-01-07T07:12:52.001Z,30.02
2023-01-07T07:15:38.763Z,21.52
2023-01-07T07:18:19.945Z,15.85
2023-01-07T07:21:07.336Z,30.92
2023-01-07T07:23:48.407Z,25.60
2023-01-07T07:26:35.872Z,38.10
2023-01-07T07:29:17.414Z,53.78
2023-01-07T07:32:04.942Z,78.28
2023-01-07T07:34:46.205Z,51.15
2023-01-07T07:37:32.764Z,58.88
2023-01-07T07:40:15.056Z,71.80
2023-01-07T07:43:11.356Z,65.35
2023-01-07T07:46:03.148Z,72.57
2023-01-07T07:48:44.521Z,65.05
2023-01-07T07:51:36.892Z,58.30
2023-01-07T07:54:25.629Z,42.80
2023-01-07T07:57:14.026Z,46.10
2023-01-07T07:59:59.789Z,37.63
2023-01-07T08:02:59.043Z,52.45
2023-01-07T08:05:48.972Z,72.75
2023-01-07T08:08:39.234Z,44.28
2023-01-07T08:11:23.285Z,47.90
2023-01-07T08:14:16.609Z,48.08
2023-01-07T08:20:59.291Z,40.88
2023-01-07T08:23:48.347Z,44.17
2023-01-07T08:26:30.296Z,42.47
2023-01-07T08:29:30.188Z,51.03
2023-01-07T08:32:15.083Z,42.13
2023-01-07T08:35:03.385Z,36.97
2023-01-07T08:37:44.437Z,42.25
2023-01-07T08:40:36.870Z,36.53
2023-01-07T08:43:35.696Z,41.55
2023-01-07T08:46:28.126Z,41.13
2023-01-07T08:49:10.402Z,38.28
2023-01-07T08:52:01.710Z,31.90
2023-01-07T08:54:59.380Z,30.52
2023-01-07T08:57:48.957Z,42.08
2023-01-07T09:00:39.512Z,45.28
2023-01-07T09:03:28.519Z,49.20
2023-01-07T09:06:11.820Z,49.72
2023-01-07T09:08:59.678Z,38.83
2023-01-07T09:11:42.125Z,39.15
2023-01-07T09:14:30.301Z,54.42
2023-01-07T09:17:18.085Z,56.75
2023-01-07T09:20:06.713Z,52.33
2023-01-07T09:22:49.037Z,36.00
2023-01-07T09:25:39.260Z,44.88
2023-01-07T09:28:22.391Z,51.65
2023-01-07T09:31:31.755Z,41.58
2023-01-07T09:34:38.033Z,41.85
2023-01-07T09:37:31.893Z,50.17
2023-01-07T09:40:23.059Z,24.13
2023-01-07T09:44:01.155Z,16.48
2023-01-07T09:46:56.289Z,23.73
2023-01-07T09:49:41.518Z,9.27
2023-01-07T09:52:55.922Z,9.25
2023-01-07T09:56:11.457Z,13.70
2023-01-07T09:58:59.552Z,6.85
2023-01-07T10:01:47.001Z,8.40
2023-01-07T10:04:44.454Z,9.65
2023-01-07T10:08:30.864Z,9.10
2023-01-07T10:11:16.183Z,9.50
2023-01-07T10:14:07.821Z,9.85
2023-01-07T10:17:33.667Z,10.75
2023-01-07T10:20:45.145Z,13.10
2023-01-07T10:23:40.092Z,11.73
2023-01-07T10:26:45.039Z,10.88
2023-01-07T10:29:56.652Z,11.75
2023-01-07T10:32:41.101Z,13.32
2023-01-07T10:35:30.133Z,11.25
2023-01-07T10:38:12.475Z,12.85
2023-01-07T10:41:04.111Z,10.95
2023-01-07T10:43:57.739Z,12.02
2023-01-07T10:47:10.109Z,11.63
2023-01-07T10:50:28.330Z,11.50
2023-01-07T10:53:35.268Z,12.15
2023-01-07T10:56:38.161Z,13.38
2023-01-07T10:59:28.013Z,13.70
2023-01-07T11:02:11.127Z,13.20
2023-01-07T11:05:00.953Z,12.15
2023-01-07T11:07:53.423Z,10.05
2023-01-07T11:10:43.099Z,11.18
2023-01-07T11:13:31.442Z,11.23
2023-01-07T11:16:23.927Z,11.18
2023-01-07T11:19:16.967Z,12.18
2023-01-07T11:22:04.007Z,10.05
2023-01-07T11:24:45.320Z,11.43
2023-01-07T11:27:38.393Z,10.77
2023-01-07T11:30:33.297Z,12.80
2023-01-07T11:34:02.419Z,15.32
2023-01-07T11:36:48.137Z,11.55
2023-01-07T11:39:38.026Z,11.68
2023-01-07T11:42:40.485Z,12.57
2023-01-07T11:45:35.602Z,12.00
2023-01-07T11:48:45.904Z,12.63
2023-01-07T11:51:34.409Z,11.07
2023-01-07T11:54:35.442Z,11.73
2023-01-07T11:57:31.975Z,12.30
2023-01-07T12:00:23.420Z,12.32
2023-01-07T12:03:20.934Z,11.73
2023-01-07T12:06:14.080Z,11.65
2023-01-07T12:09:12.129Z,11.57
2023-01-07T12:11:53.558Z,13.50
2023-01-07T12:14:44.390Z,12.40
2023-01-07T12:17:29.052Z,13.45
2023-01-07T12:20:35.139Z,12.98
2023-01-07T12:23:30.027Z,12.32
2023-01-07T12:26:29.191Z,16.55
2023-01-07T12:29:20.171Z,16.92
2023-01-07T12:32:19.521Z,14.55
2023-01-07T12:35:14.324Z,14.50
2023-01-07T12:38:39.183Z,13.15
2023-01-07T12:41:44.374Z,14.57
2023-01-07T12:44:32.211Z,17.60
2023-01-07T12:47:31.401Z,17.38
2023-01-07T12:50:35.844Z,10.93
2023-01-07T12:53:38.346Z,9.35
2023-01-07T12:56:31.231Z,9.18
2023-01-07T12:59:46.751Z,10.32
2023-01-07T13:02:55.156Z,17.05
2023-01-07T13:05:50.232Z,16.55
2023-01-07T13:09:03.976Z,16.45
2023-01-07T13:12:41.497Z,15.18
2023-01-07T13:15:30.335Z,11.10
2023-01-07T13:18:22.129Z,13.00
2023-01-07T13:21:35.974Z,11.30
2023-01-07T13:24:55.709Z,14.38
2023-01-07T13:28:15.238Z,14.40
2023-01-07T13:31:34.224Z,14.70
2023-01-07T13:34:32.186Z,13.52
2023-01-07T13:37:38.223Z,12.48
2023-01-07T13:40:43.057Z,14.27
2023-01-07T13:43:43.008Z,14.68
2023-01-07T13:46:38.297Z,16.23
2023-01-07T13:49:34.160Z,24.13
2023-01-07T13:52:29.937Z,29.95
2023-01-07T13:55:39.708Z,44.75
2023-01-07T13:58:39.073Z,22.52
2023-01-07T14:01:28.430Z,31.85
2023-01-07T14:04:15.054Z,28.00
2023-01-07T14:06:58.454Z,26.85
2023-01-07T14:09:48.418Z,27.55
2023-01-07T14:12:41.454Z,27.17
2023-01-07T14:15:54.269Z,23.10
2023-01-07T14:18:58.976Z,19.40
2023-01-07T14:21:58.687Z,19.45
2023-01-07T14:25:02.752Z,25.10
2023-01-07T14:27:50.044Z,18.88
2023-01-07T14:30:49.411Z,18.15
2023-01-07T14:33:47.409Z,27.88
2023-01-07T14:36:29.168Z,24.20
2023-01-07T14:39:37.702Z,25.30
2023-01-07T14:42:46.323Z,26.02
2023-01-07T14:45:49.087Z,25.35
2023-01-07T14:48:38.571Z,37.83
2023-01-07T14:51:50.291Z,25.55
2023-01-07T14:54:49.708Z,28.55
2023-01-07T14:58:08.244Z,24.45
2023-01-07T15:01:27.661Z,24.38
2023-01-07T15:04:39.218Z,22.20
2023-01-07T15:07:27.216Z,24.25
2023-01-07T15:10:53.810Z,23.60
2023-01-07T15:13:55.599Z,31.00
2023-01-07T15:16:43.277Z,27.48
2023-01-07T15:19:24.574Z,28.42
2023-01-07T15:22:38.479Z,28.55
2023-01-07T15:25:56.617Z,19.58
2023-01-07T15:29:15.333Z,25.00
2023-01-07T15:32:11.506Z,25.70
2023-01-07T15:34:58.139Z,39.00
2023-01-07T15:37:39.566Z,23.60
2023-01-07T15:40:30.316Z,26.13
2023-01-07T15:43:12.648Z,37.20
2023-01-07T15:46:13.587Z,33.60
2023-01-07T15:49:16.293Z,29.23
2023-01-07T15:52:08.363Z,39.10
2023-01-07T15:54:49.462Z,96.35
2023-01-07T15:57:44.195Z,55.78
2023-01-07T16:00:25.690Z,76.53
2023-01-07T16:03:14.365Z,81.35
2023-01-07T16:05:56.454Z,73.72
2023-01-07T16:08:43.110Z,62.38
2023-01-07T16:11:36.813Z,60.53
2023-01-07T16:14:37.191Z,51.70
2023-01-07T16:17:25.388Z,44.90
2023-01-07T16:20:17.324Z,105.68
2023-01-07T16:23:10.204Z,135.40
2023-01-07T16:26:02.432Z,226.98
2023-01-07T16:29:00.436Z,185.18
2023-01-07T16:31:42.421Z,128.68
2023-01-07T16:34:32.324Z,241.73
2023-01-07T16:37:21.405Z,129.07
2023-01-07T16:40:09.712Z,106.03
2023-01-07T16:42:55.350Z,107.72
2023-01-07T16:45:51.558Z,76.03
2023-01-07T16:48:38.315Z,138.48
2023-01-07T16:51:45.297Z,113.93
2023-01-07T16:54:32.502Z,140.95
2023-01-07T16:57:42.922Z,154.98
2023-01-07T17:00:30.659Z,174.18
2023-01-07T17:03:11.257Z,218.63
2023-01-07T17:06:13.598Z,151.00
2023-01-07T17:08:59.774Z,115.63
2023-01-07T17:11:48.626Z,46.17
2023-01-07T17:14:41.604Z,84.22
2023-01-07T17:17:36.309Z,196.20
2023-01-07T17:20:24.720Z,194.73
2023-01-07T17:23:32.214Z,122.57
2023-01-07T17:26:19.960Z,355.02
2023-01-07T17:29:15.594Z,222.43
2023-01-07T17:31:56.685Z,369.67
2023-01-07T17:34:43.618Z,270.38
2023-01-07T17:37:24.550Z,293.27
2023-01-07T17:40:12.737Z,398.52
2023-01-07T17:43:14.106Z,407.50
2023-01-07T17:46:01.206Z,382.23
2023-01-07T17:48:42.761Z,454.90
2023-01-07T17:51:29.221Z,320.25
2023-01-07T17:54:11.563Z,366.25
2023-01-07T17:56:59.606Z,440.13
2023-01-07T17:59:47.812Z,606.85
2023-01-07T18:02:37.415Z,360.48
2023-01-07T18:05:24.893Z,294.33
2023-01-07T18:08:12.599Z,337.58
2023-01-07T18:11:12.561Z,261.90
2023-01-07T18:13:59.691Z,339.85
2023-01-07T18:16:42.275Z,267.58
2023-01-07T18:19:30.714Z,296.15
2023-01-07T18:22:11.553Z,295.85
2023-01-07T18:24:58.515Z,375.40
2023-01-07T18:27:39.559Z,369.92
2023-01-07T18:30:30.062Z,263.70
2023-01-07T18:33:16.346Z,252.65
2023-01-07T18:36:03.378Z,217.73
2023-01-07T18:38:45.837Z,225.35
2023-01-07T18:41:35.993Z,445.58
2023-01-07T18:44:32.442Z,309.15
2023-01-07T18:47:19.631Z,212.25
2023-01-07T18:50:00.675Z,129.35
2023-01-07T18:52:50.892Z,99.05
2023-01-07T18:55:32.662Z,109.75
2023-01-07T18:58:21.508Z,170.75
2023-01-07T19:01:02.725Z,196.40
2023-01-07T19:03:49.783Z,151.70
2023-01-07T19:06:31.678Z,242.52
2023-01-07T19:09:19.034Z,278.13
2023-01-07T19:12:00.487Z,230.40
2023-01-07T19:14:49.712Z,89.10
2023-01-07T19:17:30.722Z,55.00
2023-01-07T19:20:19.759Z,39.25
2023-01-07T19:23:02.009Z,57.72
2023-01-07T19:25:50.128Z,42.67
2023-01-07T19:28:33.970Z,56.15
2023-01-07T19:31:23.775Z,62.70
2023-01-07T19:34:04.443Z,60.25
2023-01-07T19:36:54.327Z,65.43
2023-01-07T19:39:35.618Z,60.47
2023-01-07T19:42:22.303Z,81.32
2023-01-07T19:45:16.593Z,66.35
2023-01-07T19:48:04.530Z,92.10
2023-01-07T19:50:47.213Z,105.45
2023-01-07T19:53:36.239Z,48.33
2023-01-07T19:56:21.034Z,53.72
2023-01-07T19:59:09.804Z,64.75
2023-01-07T20:01:54.784Z,53.72
2023-01-07T20:04:47.231Z,71.72
2023-01-07T20:07:34.367Z,69.50
2023-01-07T20:10:22.529Z,70.00
2023-01-07T20:13:06.645Z,64.57
2023-01-07T20:15:53.691Z,64.68
2023-01-07T20:18:34.479Z,71.53
2023-01-07T20:21:23.493Z,73.85
2023-01-07T20:24:06.414Z,63.50
2023-01-07T20:26:54.991Z,61.05
2023-01-07T20:29:37.345Z,63.88
2023-01-07T20:32:24.678Z,59.00
2023-01-07T20:35:05.646Z,71.15
2023-01-07T20:37:52.730Z,59.67
2023-01-07T20:40:33.577Z,57.53
2023-01-07T20:43:20.508Z,58.53
2023-01-07T20:46:09.628Z,76.70
2023-01-07T20:48:50.365Z,47.95
2023-01-07T20:51:37.995Z,68.13
2023-01-07T20:54:20.324Z,57.60
2023-01-07T20:57:07.874Z,53.15
2023-01-07T20:59:48.728Z,53.97
2023-01-07T21:02:30.633Z,53.67
2023-01-07T21:05:21.267Z,59.97
2023-01-07T21:08:08.558Z,55.72
2023-01-07T21:10:50.456Z,60.35
2023-01-07T21:13:32.466Z,47.78
2023-01-07T21:16:20.580Z,71.20
2023-01-07T21:19:08.007Z,69.78
2023-01-07T21:21:50.588Z,68.25
2023-01-07T21:24:37.489Z,66.25
2023-01-07T21:27:18.347Z,61.70
2023-01-07T21:30:06.979Z,68.43
2023-01-07T21:32:48.686Z,66.47
2023-01-07T21:35:35.559Z,59.33
2023-01-07T21:38:16.298Z,64.95
2023-01-07T21:41:03.885Z,51.67
2023-01-07T21:43:44.552Z,59.90
2023-01-07T21:46:31.975Z,59.33
2023-01-07T21:49:16.184Z,56.00
2023-01-07T21:52:04.014Z,64.03
2023-01-07T21:54:46.669Z,61.78
2023-01-07T21:57:34.524Z,58.60
2023-01-07T22:00:17.389Z,56.67
2023-01-07T22:03:04.854Z,56.13
2023-01-07T22:05:45.707Z,60.33
2023-01-07T22:08:35.188Z,58.00
2023-01-07T22:11:20.774Z,47.25
2023-01-07T22:14:07.802Z,61.30
2023-01-07T22:16:49.315Z,70.35
2023-01-07T22:19:37.488Z,64.53
2023-01-07T22:22:18.417Z,75.35
2023-01-07T22:25:05.669Z,57.25
2023-01-07T22:27:46.968Z,58.25
2023-01-07T22:30:36.490Z,61.25
2023-01-07T22:33:17.382Z,70.88
2023-01-07T22:36:05.550Z,65.10
2023-01-07T22:38:46.525Z,64.60
2023-01-07T22:41:34.476Z,67.38
2023-01-07T22:44:33.755Z,66.28
2023-01-07T22:47:24.381Z,68.20
2023-01-07T22:50:08.422Z,68.97
2023-01-07T22:52:55.945Z,66.82
2023-01-07T22:55:38.497Z,64.28
2023-01-07T22:58:25.703Z,62.28
2023-01-07T23:01:06.586Z,63.75
2023-01-07T23:03:47.194Z,58.55
2023-01-07T23:06:35.890Z,60.08
2023-01-07T23:09:22.705Z,70.32
2023-01-07T23:12:07.744Z,61.53
2023-01-07T23:14:54.578Z,65.45
2023-01-07T23:17:35.818Z,65.15
2023-01-07T23:20:22.593Z,76.38
2023-01-07T23:23:03.822Z,69.68
2023-01-07T23:25:55.821Z,69.28
2023-01-07T23:28:36.360Z,63.00
2023-01-07T23:31:23.930Z,52.17
2023-01-07T23:34:05.827Z,57.42
2023-01-07T23:36:52.609Z,63.90
2023-01-07T23:39:33.589Z,66.32
2023-01-07T23:42:14.328Z,57.95
2023-01-07T23:45:02.969Z,48.50
2023-01-07T23:47:49.509Z,49.53
2023-01-07T23:50:30.840Z,63.95
2023-01-07T23:53:17.497Z,49.20
2023-01-07T23:56:03.982Z,48.88
2023-01-07T23:58:50.647Z,48.53
